Home > Products > Valid Products > TAF

000
FTUS43 KEAX 210500
TAFSTJ
TAF
KSTJ 210520Z 2106/2206 19008KT P6SM VCSH OVC100
     FM210900 20007KT 5SM -SHRA VCTS BKN040CB
     FM211400 29009KT 4SM -SHRA VCTS BKN020CB
     FM212000 31010KT P6SM SCT030=



000
FTUS43 KEAX 210500
TAFMCI
TAF
KMCI 210520Z 2106/2206 19009KT P6SM VCSH OVC080
     FM210900 20007KT 5SM -SHRA VCTS BKN040CB
     FM211500 28009KT 4SM -SHRA VCTS BKN020CB
     FM212200 31010KT P6SM SCT030=



000
FTUS43 KEAX 210500
TAFMKC
TAF
KMKC 210520Z 2106/2206 19008KT P6SM VCSH OVC080
     FM210900 20007KT 5SM -SHRA VCTS BKN040CB
     FM211500 28009KT 4SM -SHRA VCTS BKN020CB
     FM212200 31010KT P6SM SCT030=



000
FTUS43 KEAX 202300
TAFSTJ
TAF
KSTJ 202320Z 2100/2124 20011KT P6SM BKN070 OVC150
     FM210900 20007KT 5SM -SHRA VCTS BKN025CB
     FM211400 29009KT 4SM -SHRA VCTS BKN015CB=



000
FTUS43 KEAX 202300
TAFMCI
TAF
KMCI 202320Z 2100/2124 20012KT P6SM BKN070 OVC150
     FM210900 20007KT 5SM -SHRA VCTS BKN025CB
     FM211500 28009KT 4SM -SHRA VCTS BKN015CB=



000
FTUS43 KEAX 202300
TAFMKC
TAF
KMKC 202320Z 2100/2124 20011KT P6SM BKN070 OVC150
     FM210900 20007KT 5SM -SHRA VCTS BKN025CB
     FM211500 28009KT 4SM -SHRA VCTS BKN015CB=



000
FTUS43 KEAX 201700
TAFSTJ
TAF
KSTJ 201728Z 2018/2118 19012G22KT P6SM SCT050 BKN150
     FM210300 19011KT P6SM VCSH BKN060
     FM210900 20007KT 5SM -SHRA VCTS BKN025CB
     FM211400 31009KT 4SM -SHRA VCTS BKN015CB=



000
FTUS43 KEAX 201700
TAFMCI
TAF
KMCI 201728Z 2018/2118 19012G22KT P6SM SCT050 BKN150
     FM210200 19011KT P6SM VCSH BKN060
     FM210900 20007KT 5SM -SHRA VCTS BKN025CB
     FM211500 31009KT 4SM -SHRA VCTS BKN015CB=



000
FTUS43 KEAX 201700
TAFMKC
TAF
KMKC 201728Z 2018/2118 19012G20KT P6SM SCT050 BKN150
     FM210200 19011KT P6SM VCSH BKN060
     FM210900 20007KT 5SM -SHRA VCTS BKN025CB
     FM211500 31009KT 4SM -SHRA VCTS BKN015CB=



000
FTUS43 KEAX 201100
TAFMKC
TAF
KMKC 201120Z 2012/2112 16008KT P6SM BKN200
     FM201400 19014KT P6SM BKN100
     FM210200 18010KT P6SM VCTS BKN040CB
     FM210900 18010KT P6SM -RA VCTS OVC030CB=



000
FTUS43 KEAX 201100
TAFSTJ
TAF
KSTJ 201120Z 2012/2112 16008KT P6SM BKN200
     FM201400 19014KT P6SM BKN100
     FM210000 18010KT P6SM VCTS BKN040CB
     FM210600 18010KT 4SM -RA VCTS OVC030CB=



000
FTUS43 KEAX 201100
TAFMCI
TAF
KMCI 201120Z 2012/2112 16008KT P6SM BKN200
     FM201400 19014KT P6SM BKN100
     FM210200 18010KT P6SM VCTS BKN040CB
     FM210900 18010KT P6SM -RA VCTS OVC030CB=



000
FTUS43 KEAX 200500
TAFSTJ
TAF
KSTJ 200520Z 2006/2106 17009KT P6SM SCT250
     FM201200 18015KT P6SM BKN050
     FM202300 18010KT P6SM VCTS BKN040CB
     FM210100 18010KT P6SM -TSRA OVC030CB=



000
FTUS43 KEAX 200500
TAFMKC
TAF
KMKC 200520Z 2006/2106 16007KT P6SM SCT250
     FM201500 19014KT P6SM BKN050
     FM210200 18010KT P6SM VCTS BKN040CB
     FM210400 18010KT 4SM -TSRA OVC030CB=



000
FTUS43 KEAX 200500
TAFMCI
TAF
KMCI 200520Z 2006/2106 16008KT P6SM SCT250
     FM201400 19014KT P6SM BKN050
     FM210200 18010KT P6SM VCTS BKN040CB
     FM210400 18010KT 4SM -TSRA OVC030CB=



000
FTUS43 KEAX 192300
TAFMCI
TAF
KMCI 192320Z 2000/2024 18012G20KT P6SM BKN250
     FM200100 17009KT P6SM SCT250
     FM201400 19014KT P6SM BKN050=



000
FTUS43 KEAX 192300
TAFSTJ
TAF
KSTJ 192320Z 2000/2024 18014G20KT P6SM BKN250
     FM200100 17009KT P6SM SCT250
     FM201200 18015KT P6SM BKN050
     FM202300 18010KT P6SM VCTS BKN040CB=



000
FTUS43 KEAX 192300
TAFMKC
TAF
KMKC 192320Z 2000/2024 17012G18KT P6SM SCT250
     FM200100 16007KT P6SM FEW250
     FM201500 18015KT P6SM BKN050=



000
FTUS43 KEAX 191700
TAFMKC
TAF
KMKC 191721Z 1918/2018 18015G25KT P6SM SCT250
     FM200000 17010KT P6SM SCT250
     FM201200 18015KT P6SM BKN060=



000
FTUS43 KEAX 191700
TAFMCI
TAF
KMCI 191721Z 1918/2018 19016G26KT P6SM SCT250
     FM200000 17012KT P6SM SCT250
     FM201200 18015KT P6SM BKN060=



000
FTUS43 KEAX 191700
TAFSTJ
TAF
KSTJ 191721Z 1918/2018 19016G26KT P6SM SCT250
     FM200000 17011KT P6SM SCT250
     FM201200 18015KT P6SM BKN060=



000
FTUS43 KEAX 191100
TAFSTJ
TAF
KSTJ 191120Z 1912/2012 16008KT P6SM FEW250
     FM191500 18017G27KT P6SM FEW250
     FM200000 16010KT P6SM SCT250=



000
FTUS43 KEAX 191100
TAFMKC
TAF
KMKC 191120Z 1912/2012 18006KT P6SM FEW250
     FM191500 18014G23KT P6SM SCT250
     FM192300 16009KT P6SM SCT250=



000
FTUS43 KEAX 191100
TAFMCI
TAF
KMCI 191120Z 1912/2012 15010KT P6SM FEW250
     FM191500 18016G26KT P6SM SCT250
     FM200000 16011KT P6SM SCT250=



000
FTUS43 KEAX 190500
TAFMCI
TAF
KMCI 190522Z 1906/2006 15008KT P6SM FEW250
     FM191500 18016G26KT P6SM SCT250
     FM200000 16011KT P6SM SCT250=



000
FTUS43 KEAX 190500
TAFSTJ
TAF
KSTJ 190522Z 1906/2006 16008KT P6SM FEW250
     FM191500 18017G27KT P6SM FEW250
     FM200000 16010KT P6SM SCT250=



000
FTUS43 KEAX 190500
TAFMKC
TAF
KMKC 190522Z 1906/2006 15006KT P6SM FEW250
     FM191500 18014G23KT P6SM SCT250
     FM192300 16009KT P6SM SCT250=



000
FTUS43 KEAX 182300
TAFMKC
TAF
KMKC 182320Z 1900/1924 15006KT P6SM FEW250
     FM191500 18014G23KT P6SM SCT250=



000
FTUS43 KEAX 182300
TAFMCI
TAF
KMCI 182320Z 1900/1924 15008KT P6SM FEW250
     FM191500 18016G26KT P6SM SCT250=



000
FTUS43 KEAX 182300
TAFSTJ
TAF
KSTJ 182320Z 1900/1924 16008KT P6SM FEW250
     FM191500 18017G27KT P6SM FEW250=



000
FTUS43 KEAX 181700
TAFMCI
TAF
KMCI 181720Z 1818/1918 15008KT P6SM SKC
     FM191500 18015G25KT P6SM FEW250=



000
FTUS43 KEAX 181700
TAFMKC
TAF
KMKC 181720Z 1818/1918 14008KT P6SM SKC
     FM191500 18015G25KT P6SM FEW250=



000
FTUS43 KEAX 181700
TAFSTJ
TAF
KSTJ 181720Z 1818/1918 16008KT P6SM SKC
     FM191500 18015G25KT P6SM FEW250=



000
FTUS43 KEAX 181100
TAFMCI
TAF
KMCI 181120Z 1812/1912 VRB02KT 5SM HZ FEW250
     FM181500 15007KT P6SM FEW250=



000
FTUS43 KEAX 181100
TAFSTJ
TAF
KSTJ 181120Z 1812/1912 00000KT 4SM BR FEW250
     FM181500 15006KT P6SM FEW250=



000
FTUS43 KEAX 181100
TAFMKC
TAF
KMKC 181120Z 1812/1912 00000KT 6SM HZ FEW250
     FM181500 15006KT P6SM FEW250=



    US Dept of Commerce
    National Oceanic and Atmospheric Administration
    National Weather Service
    1325 East West Highway
    Silver Spring, MD 20910
    Page Author: NWS Internet Services Team
Disclaimer
Information Quality
Credits
Glossary
Privacy Policy
Freedom of Information Act (FOIA)
About Us
Career Opportunities